Aromas, California
Current Conditions -  °F | °C
As of 5:53 AM on Thursday 18 Dec 2014 (Local Time) from KWVI Reporting Station
Overcast Overcast  
Wind Chill: 11°   Ceiling: 2400
Heat Index: 11°   Visibility: 10mi
Dew Point: 10°   Wind: 0mph
Humidity: 93%   Direction: NA
Pressure: 30.12"   Gusts: NA
Location:  36.88°N, 121.64°W
Report Text: KWVI 181353Z AUTO 00000KT 10SM OVC024 11/10 A3012 RMK AO2 SLP199 T01110100
Loading
Personal Weather Stations






























Interactive Weather Map New forecast layout! Learn more

10-Day Weather Forecast

Advertisements
Track Severe Weather on mobile